sensor_id;sensor_type;location;lat;lon;timestamp;P1;durP1;ratioP1;P2;durP2;ratioP2
2966;SDS011;1493;51.496;7.210;2022-08-02T00:02:25;5.63;;;3.30;;
2966;SDS011;1493;51.496;7.210;2022-08-02T00:04:52;6.00;;;3.27;;
2966;SDS011;1493;51.496;7.210;2022-08-02T00:07:19;5.43;;;3.20;;
2966;SDS011;1493;51.496;7.210;2022-08-02T00:09:46;4.40;;;2.70;;
2966;SDS011;1493;51.496;7.210;2022-08-02T00:12:13;3.93;;;2.93;;
2966;SDS011;1493;51.496;7.210;2022-08-02T00:14:40;3.87;;;2.80;;
2966;SDS011;1493;51.496;7.210;2022-08-02T00:17:08;4.73;;;3.07;;
2966;SDS011;1493;51.496;7.210;2022-08-02T00:19:35;5.53;;;3.50;;
2966;SDS011;1493;51.496;7.210;2022-08-02T00:22:02;5.33;;;2.90;;
2966;SDS011;1493;51.496;7.210;2022-08-02T00:24:28;4.07;;;3.20;;
2966;SDS011;1493;51.496;7.210;2022-08-02T00:26:55;4.80;;;3.50;;
2966;SDS011;1493;51.496;7.210;2022-08-02T00:29:22;5.47;;;3.63;;
2966;SDS011;1493;51.496;7.210;2022-08-02T00:31:49;6.50;;;3.50;;
2966;SDS011;1493;51.496;7.210;2022-08-02T00:34:17;4.00;;;3.10;;
2966;SDS011;1493;51.496;7.210;2022-08-02T00:36:44;4.17;;;3.10;;
2966;SDS011;1493;51.496;7.210;2022-08-02T00:39:11;6.17;;;3.53;;
2966;SDS011;1493;51.496;7.210;2022-08-02T00:41:43;4.87;;;3.37;;
2966;SDS011;1493;51.496;7.210;2022-08-02T00:44:12;8.50;;;3.20;;
2966;SDS011;1493;51.496;7.210;2022-08-02T00:46:39;5.40;;;3.40;;
2966;SDS011;1493;51.496;7.210;2022-08-02T00:49:06;3.73;;;3.10;;
2966;SDS011;1493;51.496;7.210;2022-08-02T00:51:34;4.90;;;3.87;;
2966;SDS011;1493;51.496;7.210;2022-08-02T00:54:02;4.90;;;3.60;;
2966;SDS011;1493;51.496;7.210;2022-08-02T00:56:29;3.47;;;3.17;;
2966;SDS011;1493;51.496;7.210;2022-08-02T00:58:56;3.87;;;3.03;;
2966;SDS011;1493;51.496;7.210;2022-08-02T01:01:23;6.40;;;3.53;;
2966;SDS011;1493;51.496;7.210;2022-08-02T01:04:02;6.53;;;3.27;;
2966;SDS011;1493;51.496;7.210;2022-08-02T01:06:29;5.23;;;3.00;;
2966;SDS011;1493;51.496;7.210;2022-08-02T01:08:59;5.60;;;3.57;;
2966;SDS011;1493;51.496;7.210;2022-08-02T01:11:26;5.00;;;3.50;;
2966;SDS011;1493;51.496;7.210;2022-08-02T01:13:54;4.57;;;3.83;;
2966;SDS011;1493;51.496;7.210;2022-08-02T01:16:25;5.87;;;3.03;;
2966;SDS011;1493;51.496;7.210;2022-08-02T01:18:57;4.47;;;3.00;;
2966;SDS011;1493;51.496;7.210;2022-08-02T01:21:34;5.07;;;3.10;;
2966;SDS011;1493;51.496;7.210;2022-08-02T01:24:18;4.10;;;3.20;;
2966;SDS011;1493;51.496;7.210;2022-08-02T01:26:57;4.73;;;2.93;;
2966;SDS011;1493;51.496;7.210;2022-08-02T01:29:34;4.43;;;3.27;;
2966;SDS011;1493;51.496;7.210;2022-08-02T01:32:07;5.63;;;3.40;;
2966;SDS011;1493;51.496;7.210;2022-08-02T01:34:38;4.97;;;3.30;;
2966;SDS011;1493;51.496;7.210;2022-08-02T01:37:08;6.70;;;3.20;;
2966;SDS011;1493;51.496;7.210;2022-08-02T01:39:39;4.37;;;3.00;;
2966;SDS011;1493;51.496;7.210;2022-08-02T01:42:10;5.80;;;3.30;;
2966;SDS011;1493;51.496;7.210;2022-08-02T01:44:42;4.13;;;3.53;;
2966;SDS011;1493;51.496;7.210;2022-08-02T01:47:13;5.97;;;2.83;;
2966;SDS011;1493;51.496;7.210;2022-08-02T01:49:43;5.77;;;3.10;;
2966;SDS011;1493;51.496;7.210;2022-08-02T01:52:11;5.40;;;2.90;;
2966;SDS011;1493;51.496;7.210;2022-08-02T01:54:51;4.93;;;2.80;;
2966;SDS011;1493;51.496;7.210;2022-08-02T01:57:23;4.33;;;3.40;;
2966;SDS011;1493;51.496;7.210;2022-08-02T01:59:54;7.00;;;3.43;;
2966;SDS011;1493;51.496;7.210;2022-08-02T02:02:24;5.40;;;2.90;;
2966;SDS011;1493;51.496;7.210;2022-08-02T02:04:52;4.47;;;3.23;;
2966;SDS011;1493;51.496;7.210;2022-08-02T02:07:21;3.70;;;3.07;;
2966;SDS011;1493;51.496;7.210;2022-08-02T02:09:48;5.70;;;3.13;;
2966;SDS011;1493;51.496;7.210;2022-08-02T02:12:16;5.23;;;3.50;;
2966;SDS011;1493;51.496;7.210;2022-08-02T02:14:44;5.63;;;3.20;;
2966;SDS011;1493;51.496;7.210;2022-08-02T02:17:13;4.50;;;2.80;;
2966;SDS011;1493;51.496;7.210;2022-08-02T02:19:41;3.67;;;2.83;;
2966;SDS011;1493;51.496;7.210;2022-08-02T02:22:10;3.63;;;3.23;;
2966;SDS011;1493;51.496;7.210;2022-08-02T02:24:37;4.43;;;3.70;;
2966;SDS011;1493;51.496;7.210;2022-08-02T02:27:04;4.10;;;2.97;;
2966;SDS011;1493;51.496;7.210;2022-08-02T02:29:34;3.40;;;2.87;;
2966;SDS011;1493;51.496;7.210;2022-08-02T02:32:02;5.87;;;3.77;;
2966;SDS011;1493;51.496;7.210;2022-08-02T02:34:33;5.27;;;3.20;;
2966;SDS011;1493;51.496;7.210;2022-08-02T02:37:03;4.43;;;3.10;;
2966;SDS011;1493;51.496;7.210;2022-08-02T02:39:33;6.37;;;3.47;;
2966;SDS011;1493;51.496;7.210;2022-08-02T02:42:02;6.17;;;3.50;;
2966;SDS011;1493;51.496;7.210;2022-08-02T02:44:34;7.13;;;3.47;;
2966;SDS011;1493;51.496;7.210;2022-08-02T02:47:03;5.03;;;3.60;;
2966;SDS011;1493;51.496;7.210;2022-08-02T02:49:33;5.90;;;4.30;;
2966;SDS011;1493;51.496;7.210;2022-08-02T02:52:02;5.30;;;3.57;;
2966;SDS011;1493;51.496;7.210;2022-08-02T02:54:29;5.07;;;2.90;;
2966;SDS011;1493;51.496;7.210;2022-08-02T02:56:58;5.17;;;4.50;;
2966;SDS011;1493;51.496;7.210;2022-08-02T02:59:26;3.60;;;3.30;;
2966;SDS011;1493;51.496;7.210;2022-08-02T03:01:54;6.87;;;3.70;;
2966;SDS011;1493;51.496;7.210;2022-08-02T03:04:21;5.63;;;3.77;;
2966;SDS011;1493;51.496;7.210;2022-08-02T03:06:51;3.77;;;3.33;;
2966;SDS011;1493;51.496;7.210;2022-08-02T03:09:18;5.80;;;3.17;;
2966;SDS011;1493;51.496;7.210;2022-08-02T03:11:45;6.17;;;3.20;;
2966;SDS011;1493;51.496;7.210;2022-08-02T03:14:13;5.87;;;3.70;;
2966;SDS011;1493;51.496;7.210;2022-08-02T03:16:43;4.10;;;3.20;;
2966;SDS011;1493;51.496;7.210;2022-08-02T03:19:11;7.23;;;3.43;;
2966;SDS011;1493;51.496;7.210;2022-08-02T03:21:38;6.67;;;4.57;;
2966;SDS011;1493;51.496;7.210;2022-08-02T03:24:06;4.63;;;3.43;;
2966;SDS011;1493;51.496;7.210;2022-08-02T03:26:34;6.23;;;3.93;;
2966;SDS011;1493;51.496;7.210;2022-08-02T03:29:01;4.33;;;3.03;;
2966;SDS011;1493;51.496;7.210;2022-08-02T03:31:28;4.23;;;3.47;;
2966;SDS011;1493;51.496;7.210;2022-08-02T03:33:55;4.97;;;3.40;;
2966;SDS011;1493;51.496;7.210;2022-08-02T03:36:25;4.40;;;3.40;;
2966;SDS011;1493;51.496;7.210;2022-08-02T03:38:54;4.90;;;3.40;;
2966;SDS011;1493;51.496;7.210;2022-08-02T03:41:24;3.77;;;3.07;;
2966;SDS011;1493;51.496;7.210;2022-08-02T03:43:51;6.67;;;3.70;;
2966;SDS011;1493;51.496;7.210;2022-08-02T03:46:19;4.30;;;3.47;;
2966;SDS011;1493;51.496;7.210;2022-08-02T03:48:48;6.07;;;3.30;;
2966;SDS011;1493;51.496;7.210;2022-08-02T03:51:16;6.20;;;3.50;;
2966;SDS011;1493;51.496;7.210;2022-08-02T03:53:44;5.37;;;3.87;;
2966;SDS011;1493;51.496;7.210;2022-08-02T03:56:12;9.43;;;3.80;;
2966;SDS011;1493;51.496;7.210;2022-08-02T03:58:42;4.90;;;4.00;;
2966;SDS011;1493;51.496;7.210;2022-08-02T04:01:08;4.40;;;3.40;;
2966;SDS011;1493;51.496;7.210;2022-08-02T04:03:35;4.80;;;3.50;;
2966;SDS011;1493;51.496;7.210;2022-08-02T04:06:02;4.50;;;3.43;;
2966;SDS011;1493;51.496;7.210;2022-08-02T04:08:29;4.20;;;3.70;;
2966;SDS011;1493;51.496;7.210;2022-08-02T04:10:56;4.60;;;3.57;;
2966;SDS011;1493;51.496;7.210;2022-08-02T04:13:42;4.13;;;3.10;;
2966;SDS011;1493;51.496;7.210;2022-08-02T04:16:10;7.30;;;4.43;;
2966;SDS011;1493;51.496;7.210;2022-08-02T04:18:40;6.00;;;4.10;;
2966;SDS011;1493;51.496;7.210;2022-08-02T04:21:12;4.93;;;3.20;;
2966;SDS011;1493;51.496;7.210;2022-08-02T04:23:42;4.60;;;3.63;;
2966;SDS011;1493;51.496;7.210;2022-08-02T04:26:11;5.10;;;4.03;;
2966;SDS011;1493;51.496;7.210;2022-08-02T04:28:39;6.17;;;4.13;;
2966;SDS011;1493;51.496;7.210;2022-08-02T04:31:08;5.77;;;3.80;;
2966;SDS011;1493;51.496;7.210;2022-08-02T04:33:36;6.47;;;4.50;;
2966;SDS011;1493;51.496;7.210;2022-08-02T04:36:04;5.20;;;3.97;;
2966;SDS011;1493;51.496;7.210;2022-08-02T04:38:31;6.33;;;4.00;;
2966;SDS011;1493;51.496;7.210;2022-08-02T04:40:58;8.33;;;4.63;;
2966;SDS011;1493;51.496;7.210;2022-08-02T04:43:25;5.20;;;4.43;;
2966;SDS011;1493;51.496;7.210;2022-08-02T04:45:54;5.40;;;4.40;;
2966;SDS011;1493;51.496;7.210;2022-08-02T04:48:21;6.30;;;4.50;;
2966;SDS011;1493;51.496;7.210;2022-08-02T04:50:48;6.53;;;4.57;;
2966;SDS011;1493;51.496;7.210;2022-08-02T04:53:15;5.90;;;4.30;;
2966;SDS011;1493;51.496;7.210;2022-08-02T04:55:42;4.93;;;4.20;;
2966;SDS011;1493;51.496;7.210;2022-08-02T04:58:09;5.00;;;4.17;;
2966;SDS011;1493;51.496;7.210;2022-08-02T05:00:36;7.73;;;4.57;;
2966;SDS011;1493;51.496;7.210;2022-08-02T05:03:04;5.87;;;4.80;;
2966;SDS011;1493;51.496;7.210;2022-08-02T05:05:31;5.63;;;5.03;;
2966;SDS011;1493;51.496;7.210;2022-08-02T05:07:58;5.93;;;4.43;;
2966;SDS011;1493;51.496;7.210;2022-08-02T05:10:25;7.77;;;5.13;;
2966;SDS011;1493;51.496;7.210;2022-08-02T05:12:52;7.57;;;4.80;;
2966;SDS011;1493;51.496;7.210;2022-08-02T05:15:19;5.20;;;4.70;;
2966;SDS011;1493;51.496;7.210;2022-08-02T05:17:46;8.73;;;4.80;;
2966;SDS011;1493;51.496;7.210;2022-08-02T05:20:15;6.37;;;4.50;;
2966;SDS011;1493;51.496;7.210;2022-08-02T05:22:42;6.20;;;4.73;;
2966;SDS011;1493;51.496;7.210;2022-08-02T05:25:09;6.97;;;4.80;;
2966;SDS011;1493;51.496;7.210;2022-08-02T05:27:36;7.63;;;4.93;;
2966;SDS011;1493;51.496;7.210;2022-08-02T05:30:04;5.07;;;4.57;;
2966;SDS011;1493;51.496;7.210;2022-08-02T05:32:32;5.57;;;5.07;;
2966;SDS011;1493;51.496;7.210;2022-08-02T05:34:59;6.07;;;4.60;;
2966;SDS011;1493;51.496;7.210;2022-08-02T05:37:28;5.90;;;5.00;;
2966;SDS011;1493;51.496;7.210;2022-08-02T05:39:55;7.23;;;5.03;;
2966;SDS011;1493;51.496;7.210;2022-08-02T05:42:22;5.67;;;4.87;;
2966;SDS011;1493;51.496;7.210;2022-08-02T05:44:49;7.63;;;4.80;;
2966;SDS011;1493;51.496;7.210;2022-08-02T05:47:16;8.13;;;5.03;;
2966;SDS011;1493;51.496;7.210;2022-08-02T05:49:43;6.90;;;4.77;;
2966;SDS011;1493;51.496;7.210;2022-08-02T05:52:13;5.93;;;4.90;;
2966;SDS011;1493;51.496;7.210;2022-08-02T05:54:46;7.43;;;4.70;;
2966;SDS011;1493;51.496;7.210;2022-08-02T05:57:16;5.17;;;4.57;;
2966;SDS011;1493;51.496;7.210;2022-08-02T05:59:56;6.80;;;4.93;;
2966;SDS011;1493;51.496;7.210;2022-08-02T06:02:34;6.10;;;3.90;;
2966;SDS011;1493;51.496;7.210;2022-08-02T06:05:09;5.23;;;4.67;;
2966;SDS011;1493;51.496;7.210;2022-08-02T06:07:39;8.03;;;5.73;;
2966;SDS011;1493;51.496;7.210;2022-08-02T06:10:10;5.70;;;5.00;;
2966;SDS011;1493;51.496;7.210;2022-08-02T06:12:40;6.87;;;4.90;;
2966;SDS011;1493;51.496;7.210;2022-08-02T06:15:12;7.53;;;4.33;;
2966;SDS011;1493;51.496;7.210;2022-08-02T06:17:40;8.30;;;6.40;;
2966;SDS011;1493;51.496;7.210;2022-08-02T06:20:08;7.13;;;5.30;;
2966;SDS011;1493;51.496;7.210;2022-08-02T06:22:38;5.30;;;4.80;;
2966;SDS011;1493;51.496;7.210;2022-08-02T06:25:07;7.40;;;4.50;;
2966;SDS011;1493;51.496;7.210;2022-08-02T06:27:40;8.20;;;5.03;;
2966;SDS011;1493;51.496;7.210;2022-08-02T06:30:08;7.07;;;4.77;;
2966;SDS011;1493;51.496;7.210;2022-08-02T06:32:36;7.10;;;5.10;;
2966;SDS011;1493;51.496;7.210;2022-08-02T06:35:03;6.70;;;3.70;;
2966;SDS011;1493;51.496;7.210;2022-08-02T06:37:35;7.73;;;5.57;;
2966;SDS011;1493;51.496;7.210;2022-08-02T06:40:07;8.93;;;5.30;;
2966;SDS011;1493;51.496;7.210;2022-08-02T06:42:43;6.47;;;4.27;;
2966;SDS011;1493;51.496;7.210;2022-08-02T06:45:15;6.47;;;4.80;;
2966;SDS011;1493;51.496;7.210;2022-08-02T06:47:44;8.67;;;4.80;;
2966;SDS011;1493;51.496;7.210;2022-08-02T06:50:11;7.10;;;4.43;;
2966;SDS011;1493;51.496;7.210;2022-08-02T06:52:40;8.27;;;4.20;;
2966;SDS011;1493;51.496;7.210;2022-08-02T06:55:07;5.43;;;3.70;;
2966;SDS011;1493;51.496;7.210;2022-08-02T06:57:36;21.17;;;13.30;;
2966;SDS011;1493;51.496;7.210;2022-08-02T07:00:03;15.93;;;9.50;;
2966;SDS011;1493;51.496;7.210;2022-08-02T07:02:35;7.43;;;5.30;;
2966;SDS011;1493;51.496;7.210;2022-08-02T07:05:19;5.97;;;4.13;;
2966;SDS011;1493;51.496;7.210;2022-08-02T07:07:49;5.23;;;3.53;;
2966;SDS011;1493;51.496;7.210;2022-08-02T07:10:16;8.63;;;3.90;;
2966;SDS011;1493;51.496;7.210;2022-08-02T07:12:44;4.63;;;3.23;;
2966;SDS011;1493;51.496;7.210;2022-08-02T07:15:11;4.40;;;3.20;;
2966;SDS011;1493;51.496;7.210;2022-08-02T07:17:40;9.10;;;3.80;;
2966;SDS011;1493;51.496;7.210;2022-08-02T07:20:07;6.00;;;2.77;;
2966;SDS011;1493;51.496;7.210;2022-08-02T07:22:35;5.70;;;3.30;;
2966;SDS011;1493;51.496;7.210;2022-08-02T07:25:02;5.30;;;3.50;;
2966;SDS011;1493;51.496;7.210;2022-08-02T07:27:30;4.33;;;2.23;;
2966;SDS011;1493;51.496;7.210;2022-08-02T07:29:58;5.53;;;2.97;;
2966;SDS011;1493;51.496;7.210;2022-08-02T07:32:26;6.23;;;2.40;;
2966;SDS011;1493;51.496;7.210;2022-08-02T07:34:56;4.67;;;2.50;;
2966;SDS011;1493;51.496;7.210;2022-08-02T07:37:24;5.13;;;2.80;;
2966;SDS011;1493;51.496;7.210;2022-08-02T07:39:54;5.10;;;2.73;;
2966;SDS011;1493;51.496;7.210;2022-08-02T07:42:21;5.00;;;3.30;;
2966;SDS011;1493;51.496;7.210;2022-08-02T07:44:48;6.60;;;2.90;;
2966;SDS011;1493;51.496;7.210;2022-08-02T07:47:17;8.67;;;2.60;;
2966;SDS011;1493;51.496;7.210;2022-08-02T07:49:44;5.67;;;3.00;;
2966;SDS011;1493;51.496;7.210;2022-08-02T07:52:11;3.70;;;2.90;;
2966;SDS011;1493;51.496;7.210;2022-08-02T07:54:38;8.23;;;2.80;;
2966;SDS011;1493;51.496;7.210;2022-08-02T07:57:04;8.60;;;2.50;;
2966;SDS011;1493;51.496;7.210;2022-08-02T07:59:31;6.60;;;3.00;;
2966;SDS011;1493;51.496;7.210;2022-08-02T08:01:58;4.17;;;2.70;;
2966;SDS011;1493;51.496;7.210;2022-08-02T08:04:26;4.80;;;2.07;;
2966;SDS011;1493;51.496;7.210;2022-08-02T08:06:54;2.93;;;2.23;;
2966;SDS011;1493;51.496;7.210;2022-08-02T08:09:21;5.23;;;2.07;;
2966;SDS011;1493;51.496;7.210;2022-08-02T08:11:48;3.57;;;3.17;;
2966;SDS011;1493;51.496;7.210;2022-08-02T08:14:15;5.37;;;2.60;;
2966;SDS011;1493;51.496;7.210;2022-08-02T08:16:42;5.77;;;2.30;;
2966;SDS011;1493;51.496;7.210;2022-08-02T08:19:09;3.90;;;2.40;;
2966;SDS011;1493;51.496;7.210;2022-08-02T08:21:37;5.50;;;2.47;;
2966;SDS011;1493;51.496;7.210;2022-08-02T08:24:04;4.17;;;2.07;;
2966;SDS011;1493;51.496;7.210;2022-08-02T08:26:31;4.57;;;1.80;;
2966;SDS011;1493;51.496;7.210;2022-08-02T08:28:58;3.73;;;2.03;;
2966;SDS011;1493;51.496;7.210;2022-08-02T08:31:25;3.40;;;1.90;;
2966;SDS011;1493;51.496;7.210;2022-08-02T08:33:52;3.33;;;1.87;;
2966;SDS011;1493;51.496;7.210;2022-08-02T08:36:20;2.87;;;1.70;;
2966;SDS011;1493;51.496;7.210;2022-08-02T08:38:49;2.93;;;1.70;;
2966;SDS011;1493;51.496;7.210;2022-08-02T08:41:16;3.63;;;1.80;;
2966;SDS011;1493;51.496;7.210;2022-08-02T08:43:44;4.40;;;2.33;;
2966;SDS011;1493;51.496;7.210;2022-08-02T08:46:18;5.10;;;1.63;;
2966;SDS011;1493;51.496;7.210;2022-08-02T08:48:51;4.40;;;1.60;;
2966;SDS011;1493;51.496;7.210;2022-08-02T08:51:22;2.90;;;1.50;;
2966;SDS011;1493;51.496;7.210;2022-08-02T08:53:58;2.30;;;1.17;;
2966;SDS011;1493;51.496;7.210;2022-08-02T08:56:28;3.10;;;1.40;;
2966;SDS011;1493;51.496;7.210;2022-08-02T08:59:00;5.57;;;1.90;;
2966;SDS011;1493;51.496;7.210;2022-08-02T09:01:28;3.20;;;1.50;;
2966;SDS011;1493;51.496;7.210;2022-08-02T09:03:55;3.90;;;1.73;;
2966;SDS011;1493;51.496;7.210;2022-08-02T09:06:22;4.23;;;2.13;;
2966;SDS011;1493;51.496;7.210;2022-08-02T09:08:49;2.30;;;1.40;;
2966;SDS011;1493;51.496;7.210;2022-08-02T09:11:19;2.30;;;1.40;;
2966;SDS011;1493;51.496;7.210;2022-08-02T09:13:49;3.00;;;1.63;;
2966;SDS011;1493;51.496;7.210;2022-08-02T09:16:26;4.10;;;1.87;;
2966;SDS011;1493;51.496;7.210;2022-08-02T09:18:57;3.50;;;1.60;;
2966;SDS011;1493;51.496;7.210;2022-08-02T09:21:32;5.53;;;1.93;;
2966;SDS011;1493;51.496;7.210;2022-08-02T09:24:00;3.37;;;2.00;;
2966;SDS011;1493;51.496;7.210;2022-08-02T09:26:28;4.40;;;2.10;;
2966;SDS011;1493;51.496;7.210;2022-08-02T09:28:59;3.27;;;1.80;;
2966;SDS011;1493;51.496;7.210;2022-08-02T09:31:27;3.30;;;2.10;;
2966;SDS011;1493;51.496;7.210;2022-08-02T09:33:54;4.67;;;2.37;;
2966;SDS011;1493;51.496;7.210;2022-08-02T09:36:23;2.73;;;1.80;;
2966;SDS011;1493;51.496;7.210;2022-08-02T09:38:51;4.00;;;2.20;;
2966;SDS011;1493;51.496;7.210;2022-08-02T09:41:20;6.20;;;2.00;;
2966;SDS011;1493;51.496;7.210;2022-08-02T09:43:50;3.23;;;2.33;;
2966;SDS011;1493;51.496;7.210;2022-08-02T09:46:18;6.13;;;2.30;;
2966;SDS011;1493;51.496;7.210;2022-08-02T09:48:50;3.03;;;2.10;;
2966;SDS011;1493;51.496;7.210;2022-08-02T09:51:19;2.60;;;1.77;;
2966;SDS011;1493;51.496;7.210;2022-08-02T09:53:49;3.17;;;2.33;;
2966;SDS011;1493;51.496;7.210;2022-08-02T09:56:18;4.30;;;2.20;;
2966;SDS011;1493;51.496;7.210;2022-08-02T09:58:45;3.10;;;2.03;;
2966;SDS011;1493;51.496;7.210;2022-08-02T10:01:15;4.33;;;2.60;;
2966;SDS011;1493;51.496;7.210;2022-08-02T10:03:55;3.63;;;2.43;;
2966;SDS011;1493;51.496;7.210;2022-08-02T10:06:24;2.93;;;2.33;;
2966;SDS011;1493;51.496;7.210;2022-08-02T10:08:51;2.60;;;2.10;;
2966;SDS011;1493;51.496;7.210;2022-08-02T10:11:19;3.50;;;2.30;;
2966;SDS011;1493;51.496;7.210;2022-08-02T10:13:47;3.73;;;1.70;;
2966;SDS011;1493;51.496;7.210;2022-08-02T10:16:17;5.43;;;2.43;;
2966;SDS011;1493;51.496;7.210;2022-08-02T10:18:47;3.60;;;2.43;;
2966;SDS011;1493;51.496;7.210;2022-08-02T10:21:18;3.73;;;2.57;;
2966;SDS011;1493;51.496;7.210;2022-08-02T10:23:48;3.60;;;2.30;;
2966;SDS011;1493;51.496;7.210;2022-08-02T10:26:17;4.10;;;2.30;;
2966;SDS011;1493;51.496;7.210;2022-08-02T10:28:46;3.73;;;2.27;;
2966;SDS011;1493;51.496;7.210;2022-08-02T10:31:18;7.10;;;2.47;;
2966;SDS011;1493;51.496;7.210;2022-08-02T10:33:49;4.47;;;2.60;;
2966;SDS011;1493;51.496;7.210;2022-08-02T10:36:18;5.33;;;2.43;;
2966;SDS011;1493;51.496;7.210;2022-08-02T10:38:47;4.60;;;2.10;;
2966;SDS011;1493;51.496;7.210;2022-08-02T10:41:14;4.03;;;2.20;;
2966;SDS011;1493;51.496;7.210;2022-08-02T10:44:21;4.00;;;2.83;;
2966;SDS011;1493;51.496;7.210;2022-08-02T10:46:52;3.80;;;2.90;;
2966;SDS011;1493;51.496;7.210;2022-08-02T10:49:48;4.00;;;2.77;;
2966;SDS011;1493;51.496;7.210;2022-08-02T10:52:16;4.50;;;3.17;;
2966;SDS011;1493;51.496;7.210;2022-08-02T10:54:46;5.07;;;2.57;;
2966;SDS011;1493;51.496;7.210;2022-08-02T10:57:16;5.20;;;2.50;;
2966;SDS011;1493;51.496;7.210;2022-08-02T10:59:45;3.33;;;2.77;;
2966;SDS011;1493;51.496;7.210;2022-08-02T11:02:31;3.07;;;2.47;;
2966;SDS011;1493;51.496;7.210;2022-08-02T11:05:04;4.30;;;2.77;;
2966;SDS011;1493;51.496;7.210;2022-08-02T11:07:36;6.90;;;2.40;;
2966;SDS011;1493;51.496;7.210;2022-08-02T11:13:09;4.47;;;2.73;;
2966;SDS011;1493;51.496;7.210;2022-08-02T11:15:58;6.77;;;2.80;;
2966;SDS011;1493;51.496;7.210;2022-08-02T11:21:28;5.03;;;3.40;;
2966;SDS011;1493;51.496;7.210;2022-08-02T11:24:22;7.10;;;3.27;;
2966;SDS011;1493;51.496;7.210;2022-08-02T11:26:51;5.53;;;3.10;;
2966;SDS011;1493;51.496;7.210;2022-08-02T11:29:18;4.33;;;2.80;;
2966;SDS011;1493;51.496;7.210;2022-08-02T11:31:46;7.00;;;3.00;;
2966;SDS011;1493;51.496;7.210;2022-08-02T11:34:13;3.17;;;2.43;;
2966;SDS011;1493;51.496;7.210;2022-08-02T11:36:43;3.40;;;2.10;;
2966;SDS011;1493;51.496;7.210;2022-08-02T11:39:11;6.50;;;2.80;;
2966;SDS011;1493;51.496;7.210;2022-08-02T11:41:39;3.67;;;2.67;;
2966;SDS011;1493;51.496;7.210;2022-08-02T11:44:07;3.53;;;2.87;;
2966;SDS011;1493;51.496;7.210;2022-08-02T11:46:34;3.17;;;2.23;;
2966;SDS011;1493;51.496;7.210;2022-08-02T11:51:54;12.77;;;3.20;;
2966;SDS011;1493;51.496;7.210;2022-08-02T11:54:25;4.90;;;2.80;;
2966;SDS011;1493;51.496;7.210;2022-08-02T11:56:54;4.33;;;2.57;;
2966;SDS011;1493;51.496;7.210;2022-08-02T11:59:35;5.30;;;2.57;;
2966;SDS011;1493;51.496;7.210;2022-08-02T12:02:03;4.40;;;2.50;;
2966;SDS011;1493;51.496;7.210;2022-08-02T12:04:30;5.83;;;2.60;;
2966;SDS011;1493;51.496;7.210;2022-08-02T12:06:59;3.37;;;1.90;;
2966;SDS011;1493;51.496;7.210;2022-08-02T12:09:30;3.13;;;2.17;;
2966;SDS011;1493;51.496;7.210;2022-08-02T12:11:58;4.40;;;2.10;;
2966;SDS011;1493;51.496;7.210;2022-08-02T12:14:29;4.57;;;2.10;;
2966;SDS011;1493;51.496;7.210;2022-08-02T12:16:56;3.93;;;1.90;;
2966;SDS011;1493;51.496;7.210;2022-08-02T12:19:41;2.80;;;2.07;;
2966;SDS011;1493;51.496;7.210;2022-08-02T12:22:11;3.77;;;2.10;;
2966;SDS011;1493;51.496;7.210;2022-08-02T12:24:41;4.60;;;2.10;;
2966;SDS011;1493;51.496;7.210;2022-08-02T12:27:09;3.67;;;2.00;;
2966;SDS011;1493;51.496;7.210;2022-08-02T12:29:57;4.80;;;2.07;;
2966;SDS011;1493;51.496;7.210;2022-08-02T12:32:26;3.53;;;1.73;;
2966;SDS011;1493;51.496;7.210;2022-08-02T12:35:00;3.90;;;2.00;;
2966;SDS011;1493;51.496;7.210;2022-08-02T12:37:30;3.00;;;1.70;;
2966;SDS011;1493;51.496;7.210;2022-08-02T12:39:57;2.77;;;1.83;;
2966;SDS011;1493;51.496;7.210;2022-08-02T12:42:24;2.97;;;1.80;;
2966;SDS011;1493;51.496;7.210;2022-08-02T12:44:51;2.60;;;1.70;;
2966;SDS011;1493;51.496;7.210;2022-08-02T12:47:19;4.80;;;1.70;;
2966;SDS011;1493;51.496;7.210;2022-08-02T12:52:40;4.23;;;1.80;;
2966;SDS011;1493;51.496;7.210;2022-08-02T12:55:14;4.00;;;1.63;;
2966;SDS011;1493;51.496;7.210;2022-08-02T12:57:49;3.07;;;1.83;;
2966;SDS011;1493;51.496;7.210;2022-08-02T13:00:22;3.70;;;2.10;;
2966;SDS011;1493;51.496;7.210;2022-08-02T13:02:51;3.70;;;1.77;;
2966;SDS011;1493;51.496;7.210;2022-08-02T13:05:18;3.23;;;1.93;;
2966;SDS011;1493;51.496;7.210;2022-08-02T13:07:47;4.57;;;2.30;;
2966;SDS011;1493;51.496;7.210;2022-08-02T13:10:14;4.37;;;2.00;;
2966;SDS011;1493;51.496;7.210;2022-08-02T13:12:41;6.27;;;2.10;;
2966;SDS011;1493;51.496;7.210;2022-08-02T13:15:09;3.87;;;2.40;;
2966;SDS011;1493;51.496;7.210;2022-08-02T13:17:36;2.93;;;1.70;;
2966;SDS011;1493;51.496;7.210;2022-08-02T13:20:04;5.10;;;1.93;;
2966;SDS011;1493;51.496;7.210;2022-08-02T13:22:32;4.90;;;1.97;;
2966;SDS011;1493;51.496;7.210;2022-08-02T13:25:01;4.07;;;1.93;;
2966;SDS011;1493;51.496;7.210;2022-08-02T13:27:28;8.67;;;1.87;;
2966;SDS011;1493;51.496;7.210;2022-08-02T13:29:56;2.83;;;1.73;;
2966;SDS011;1493;51.496;7.210;2022-08-02T13:32:23;3.60;;;1.77;;
2966;SDS011;1493;51.496;7.210;2022-08-02T13:34:51;5.33;;;2.10;;
2966;SDS011;1493;51.496;7.210;2022-08-02T13:37:18;3.70;;;1.90;;
2966;SDS011;1493;51.496;7.210;2022-08-02T13:39:45;4.47;;;1.83;;
2966;SDS011;1493;51.496;7.210;2022-08-02T13:42:14;3.37;;;1.90;;
2966;SDS011;1493;51.496;7.210;2022-08-02T13:44:41;4.03;;;1.37;;
2966;SDS011;1493;51.496;7.210;2022-08-02T13:47:08;2.60;;;1.60;;
2966;SDS011;1493;51.496;7.210;2022-08-02T13:49:35;4.00;;;1.90;;
2966;SDS011;1493;51.496;7.210;2022-08-02T13:52:02;2.47;;;1.60;;
2966;SDS011;1493;51.496;7.210;2022-08-02T13:54:29;5.40;;;1.90;;
2966;SDS011;1493;51.496;7.210;2022-08-02T13:56:56;2.40;;;1.60;;
2966;SDS011;1493;51.496;7.210;2022-08-02T13:59:25;3.90;;;2.07;;
2966;SDS011;1493;51.496;7.210;2022-08-02T14:01:52;3.47;;;2.07;;
2966;SDS011;1493;51.496;7.210;2022-08-02T14:04:20;3.07;;;1.93;;
2966;SDS011;1493;51.496;7.210;2022-08-02T14:06:47;4.03;;;1.83;;
2966;SDS011;1493;51.496;7.210;2022-08-02T14:09:14;3.20;;;1.63;;
2966;SDS011;1493;51.496;7.210;2022-08-02T14:11:41;5.70;;;1.70;;
2966;SDS011;1493;51.496;7.210;2022-08-02T14:14:08;3.00;;;2.00;;
2966;SDS011;1493;51.496;7.210;2022-08-02T14:16:36;4.67;;;2.00;;
2966;SDS011;1493;51.496;7.210;2022-08-02T14:19:03;3.10;;;1.80;;
2966;SDS011;1493;51.496;7.210;2022-08-02T14:21:30;2.50;;;1.47;;
2966;SDS011;1493;51.496;7.210;2022-08-02T14:23:57;3.60;;;1.77;;
2966;SDS011;1493;51.496;7.210;2022-08-02T14:26:24;3.43;;;2.17;;
2966;SDS011;1493;51.496;7.210;2022-08-02T14:28:51;3.70;;;1.73;;
2966;SDS011;1493;51.496;7.210;2022-08-02T14:31:18;2.80;;;1.50;;
2966;SDS011;1493;51.496;7.210;2022-08-02T14:33:46;2.40;;;1.43;;
2966;SDS011;1493;51.496;7.210;2022-08-02T14:36:13;3.07;;;1.50;;
2966;SDS011;1493;51.496;7.210;2022-08-02T14:38:40;3.77;;;1.90;;
2966;SDS011;1493;51.496;7.210;2022-08-02T14:41:06;4.47;;;2.27;;
2966;SDS011;1493;51.496;7.210;2022-08-02T14:43:33;6.33;;;2.77;;
2966;SDS011;1493;51.496;7.210;2022-08-02T14:46:18;3.40;;;1.90;;
2966;SDS011;1493;51.496;7.210;2022-08-02T14:48:46;3.53;;;2.00;;
2966;SDS011;1493;51.496;7.210;2022-08-02T14:51:13;4.00;;;1.90;;
2966;SDS011;1493;51.496;7.210;2022-08-02T14:53:40;4.30;;;1.63;;
2966;SDS011;1493;51.496;7.210;2022-08-02T14:56:08;2.87;;;1.80;;
2966;SDS011;1493;51.496;7.210;2022-08-02T14:58:34;2.40;;;1.30;;
2966;SDS011;1493;51.496;7.210;2022-08-02T15:01:01;2.50;;;1.70;;
2966;SDS011;1493;51.496;7.210;2022-08-02T15:03:28;3.00;;;1.90;;
2966;SDS011;1493;51.496;7.210;2022-08-02T15:05:57;4.33;;;1.73;;
2966;SDS011;1493;51.496;7.210;2022-08-02T15:08:23;3.43;;;1.90;;
2966;SDS011;1493;51.496;7.210;2022-08-02T15:10:50;4.10;;;1.90;;
2966;SDS011;1493;51.496;7.210;2022-08-02T15:13:17;3.43;;;1.70;;
2966;SDS011;1493;51.496;7.210;2022-08-02T15:15:44;4.03;;;1.83;;
2966;SDS011;1493;51.496;7.210;2022-08-02T15:18:11;2.90;;;1.97;;
2966;SDS011;1493;51.496;7.210;2022-08-02T15:20:39;2.70;;;1.70;;
2966;SDS011;1493;51.496;7.210;2022-08-02T15:23:07;3.13;;;1.77;;
2966;SDS011;1493;51.496;7.210;2022-08-02T15:25:34;2.27;;;1.47;;
2966;SDS011;1493;51.496;7.210;2022-08-02T15:28:01;2.40;;;1.73;;
2966;SDS011;1493;51.496;7.210;2022-08-02T15:30:30;2.50;;;1.70;;
2966;SDS011;1493;51.496;7.210;2022-08-02T15:32:57;2.73;;;1.50;;
2966;SDS011;1493;51.496;7.210;2022-08-02T15:35:24;3.00;;;1.70;;
2966;SDS011;1493;51.496;7.210;2022-08-02T15:37:51;5.03;;;2.17;;
2966;SDS011;1493;51.496;7.210;2022-08-02T15:40:19;2.43;;;1.63;;